Lincoln, NM

10:56 PM MST on January 30, 2015 (GMT -0700)
Sierra Blanca Regional | Change Station
CLOSE
Current Station
Airport
Location: Ruidoso,
Elevation: 6811 ft
Nearby Weather Stations
Active Advisory: Winter Storm Warning Active Notice: Public Information Statement

Elev 6811 ft 33.46 °N, 105.53 °W | Updated 21 minutes ago

Ice Pellets
Ice Pellets
28 °F
Feels Like 20 °F
N
8
Wind Variable Wind from ESE

Today
High -- | Low -- °F
--% Chance of Precip.
Yesterday
High -- | Low -- °F
Precip. -- in
6:59 AM 5:31 PM
Waxing Gibbous, 87% visible
Pressure 30.09 in
Visibility 0.8 miles
Clouds Overcast 100 ft
Windchill 20 °F
Dew Point 28 °F
Humidity 100%
Rainfall 0.05 in
Snow Depth Not available.
UV 0 out of 12
Pollen .60 out of 12
Air Quality Not available.
Flu Activity Not available.
METAR KSRR 310535Z AUTO 12007KT 3/4SM -RA OVC001 M02/M02 A3009 RMK AO2

More Conditions Fewer Conditions

Pressure 30.09 in
Visibility 0.8 miles
Clouds Overcast 100 ft
Windchill 20 °F
Dew Point 28 °F
Humidity 100%
Rainfall 0.05 in
Snow Depth Not available.
UV 0 out of 12
Pollen .60 out of 12
Air Quality Not available.
Flu Activity Not available.
METAR KSRR 310535Z AUTO 12007KT 3/4SM -RA OVC001 M02/M02 A3009 RMK AO2

More Conditions Fewer Conditions

Nowcast | as of 10:45 PM MST on January 30, 2015

Light to moderate rain and higher elevation snow will continue across south central portions of New Mexico into the overnight hours. Through 145 am MST...new snow accumulations of around 1 inch are possible above 7000 feet in the southwest and south central mountains...favoring south and southwest facing slopes. Fog will decrease visibilities to less than one quarter of a mile at times near Corona...Alto and Ruidoso. For the latest Road conditions visit N M roads dot com or dial 5 1 1.

×

10-Day Weather Forecast

Almanac

Astronomy

Jan. 30, 2015 Rise Set
Actual Time
Civil Twilight
Nautical Twilight
Astronomical Twilight
Moon
Length of Visible Light
Length of Day
Tomorrow will be .
, % of the Moon is Illuminated

Today's Extremes

State Highs State Lows

Community

WunderPhotos

Upload Photos

1,792,005 photos uploaded!

WunderBlogs® & News

Nearby

Air Quality

  Air Quality AQ Index Pollutant
Not available.

Snow Depth

Station Depth Elevation

Earthquake Activity

City Distance Mag. Time & Date
Minimum magnitude displayed is 2.5.

Coastal Water Temperatures

Place Temperature

Nearby Weather Stations